Thunderstorms From: 25-05-2018 15:00 Until: 26-05-2018 15:00 warning for: Thunderstorms Level: Yellow info button

Although rather usual in this region, locally or potentially dangerous phenomena are expected. (such as local winds, summer thunderstorms, rising streams or high waves) Be aware and pay attention to the latest weather updates, especially if you carry out activities exposed to weather or close to a stream or shoreline. 


Meteo18 Weather Cam more information Meteo18 Weather Cam


warning for Thunderstorms more information blitzortung!


Rain radar more information rain snow radar


Visit our other weather sites:

Template documentation
and downloads

And another site



Weather Underground History page Text

Daily Summary for January 26, 2016 Units:  Metric    English   Both
« Previous Day
Next Day »
Daily Weekly Monthly Yearly Custom
  High: Low: Average:
Temperature: -17.8 °C -16.9 °C -14.1 °C
Dew Point: -17.8 °C -17.1 °C -14.4 °C
Humidity: Humidity % 87 % 95 %
Wind Speed: 0 km/h 0 km/h 2.4 km/h
Wind Gust: 0 km/h - -
Wind:- - SW
Pressure: 0 hPa 34784.4 hPa -
Precipitation: 0 mm    
Historical Graphs
 
 
Tabular Data for January 26, 2016
Time Temperature Dew Point Pressure Wind Wind Speed Wind Gust Humidity Rainfall Rate (Hourly)
-17.8 °C -17.8 °C 0 hPa Calm     Humidity % 0 mm
00:02 -15.4 °C -15.7 °C 34852.1 hPa Calm   2.6 km/h 97 % 0 mm
00:12 -15.4 °C -15.7 °C 34852.1 hPa Calm     97 % 0 mm
00:17 -15.3 °C -15.6 °C 34852.1 hPa Calm     97 % 0 mm
00:22 -15.3 °C -15.6 °C 34865.6 hPa Calm     97 % 0 mm
00:27 -15.4 °C -15.6 °C 34865.6 hPa Calm     97 % 0 mm
00:37 -15.4 °C -15.6 °C 34865.6 hPa Calm     97 % 0 mm
00:42 -15.4 °C -15.6 °C 34865.6 hPa Calm     97 % 0 mm
00:47 -15.3 °C -15.5 °C 34865.6 hPa Calm     98 % 0 mm
00:52 -15.3 °C -15.5 °C 34865.6 hPa Calm     98 % 0 mm
00:57 -15.4 °C -15.6 °C 34865.6 hPa Calm   2.6 km/h 97 % 0 mm
01:02 -15.3 °C -15.5 °C 34875.8 hPa Calm   2.6 km/h 98 % 0 mm
01:12 -15.4 °C -15.6 °C 34865.6 hPa Calm     97 % 0 mm
01:17 -15.4 °C -15.7 °C 34865.6 hPa Calm     97 % 0 mm
01:22 -15.5 °C -15.7 °C 34865.6 hPa Calm     97 % 0 mm
01:27 -15.6 °C -15.8 °C 34875.8 hPa Calm     97 % 0 mm
01:32 -15.7 °C -15.9 °C 34865.6 hPa Calm     97 % 0 mm
01:37 -15.8 °C -16 °C 34865.6 hPa Calm     97 % 0 mm
01:42 -15.9 °C -16.1 °C 34865.6 hPa Calm     97 % 0 mm
01:47 -15.9 °C -16.2 °C 34865.6 hPa Calm     97 % 0 mm
01:52 -16 °C -16.2 °C 34865.6 hPa Calm     97 % 0 mm
01:57 -16 °C -16.2 °C 34865.6 hPa Calm     97 % 0 mm
02:02 -16 °C -16.2 °C 34865.6 hPa Calm     97 % 0 mm
02:07 -15.9 °C -16.2 °C 34865.6 hPa Calm     97 % 0 mm
02:12 -15.9 °C -16.1 °C 34865.6 hPa Calm     98 % 0 mm
02:17 -15.9 °C -16.2 °C 34875.8 hPa Calm     97 % 0 mm
02:22 -15.9 °C -16.1 °C 34875.8 hPa Calm     98 % 0 mm
02:27 -15.8 °C -16 °C 34865.6 hPa Calm     98 % 0 mm
02:32 -15.8 °C -16 °C 34865.6 hPa Calm     98 % 0 mm
02:37 -15.9 °C -16.1 °C 34865.6 hPa Calm     98 % 0 mm
02:42 -15.9 °C -16.2 °C 34865.6 hPa Calm     97 % 0 mm
02:47 -16 °C -16.2 °C 34875.8 hPa Calm     97 % 0 mm
02:52 -15.9 °C -16.1 °C 34875.8 hPa Calm     98 % 0 mm
02:57 -16 °C -16.2 °C 34865.6 hPa Calm     98 % 0 mm
03:02 -16.1 °C -16.3 °C 34865.6 hPa Calm     97 % 0 mm
03:07 -16.1 °C -16.2 °C 34852.1 hPa Calm     98 % 0 mm
03:12 -16 °C -16.2 °C 34852.1 hPa Calm     98 % 0 mm
03:17 -16.2 °C -16.4 °C 34852.1 hPa Calm     97 % 0 mm
03:22 -16.3 °C -16.5 °C 34852.1 hPa Calm     97 % 0 mm
03:27 -16.3 °C -16.5 °C 34852.1 hPa Calm     97 % 0 mm
03:32 -16.2 °C -16.4 °C 34852.1 hPa Calm     98 % 0 mm
03:37 -16.3 °C -16.4 °C 34852.1 hPa Calm     98 % 0 mm
03:42 -16.3 °C -16.5 °C 34852.1 hPa Calm     98 % 0 mm
03:47 -16.3 °C -16.6 °C 34841.9 hPa Calm     97 % 0 mm
03:52 -16.4 °C -16.7 °C 34841.9 hPa Calm     97 % 0 mm
03:57 -16.4 °C -16.6 °C 34831.8 hPa Calm     98 % 0 mm
04:02 -16.4 °C -16.6 °C 34841.9 hPa Calm     98 % 0 mm
04:07 -16.4 °C -16.6 °C 34831.8 hPa Calm     98 % 0 mm
04:12 -16.5 °C -16.7 °C 34831.8 hPa Calm     98 % 0 mm
04:17 -16.6 °C -16.7 °C 34831.8 hPa Calm     98 % 0 mm
04:22 -16.6 °C -16.7 °C 34841.9 hPa Calm     98 % 0 mm
04:27 -16.5 °C -16.7 °C 34831.8 hPa Calm     98 % 0 mm
04:32 -16.6 °C -16.7 °C 34841.9 hPa Calm     98 % 0 mm
04:37 -16.5 °C -16.7 °C 34841.9 hPa Calm     98 % 0 mm
04:47 -16.2 °C -16.4 °C 34831.8 hPa Calm     98 % 0 mm
04:57 -16.2 °C -16.4 °C 34831.8 hPa Calm   2.6 km/h 98 % 0 mm
05:02 -16.3 °C -16.5 °C 34831.8 hPa Calm   2.6 km/h 98 % 0 mm
05:12 -16.4 °C -16.6 °C 34831.8 hPa Calm     98 % 0 mm
05:17 -16.5 °C -16.7 °C 34831.8 hPa Calm     98 % 0 mm
05:22 -16.4 °C -16.6 °C 34831.8 hPa Calm     98 % 0 mm
05:32 -16.6 °C -16.7 °C 34831.8 hPa Calm     98 % 0 mm
05:37 -16.6 °C -16.8 °C 34818.2 hPa Calm     98 % 0 mm
05:42 -16.6 °C -16.7 °C 34818.2 hPa Calm     98 % 0 mm
05:47 -16.6 °C -16.8 °C 34831.8 hPa Calm     98 % 0 mm
05:52 -16.6 °C -16.8 °C 34818.2 hPa Calm     98 % 0 mm
06:02 -16.6 °C -16.8 °C 34831.8 hPa Calm   2.6 km/h 98 % 0 mm
06:12 -16.7 °C -16.8 °C 34818.2 hPa Calm     98 % 0 mm
06:17 -16.4 °C -16.6 °C 34818.2 hPa Calm     98 % 0 mm
06:22 -16.5 °C -16.7 °C 34818.2 hPa Calm     98 % 0 mm
06:32 -16.7 °C -16.9 °C 34818.2 hPa Calm     98 % 0 mm
06:37 -16.7 °C -16.9 °C 34818.2 hPa Calm     98 % 0 mm
06:42 -16.7 °C -16.9 °C 34818.2 hPa Calm     98 % 0 mm
06:47 -16.7 °C -16.9 °C 34818.2 hPa Calm     98 % 0 mm
06:52 -16.8 °C -17 °C 34808.1 hPa Calm     98 % 0 mm
07:02 -16.9 °C -17.1 °C 34818.2 hPa Calm     98 % 0 mm
07:12 -16.9 °C -17.1 °C 34818.2 hPa Calm     98 % 0 mm
07:22 -16.9 °C -17.1 °C 34818.2 hPa Calm     98 % 0 mm
07:32 -16.9 °C -17.1 °C 34818.2 hPa Calm     98 % 0 mm
07:37 -16.8 °C -16.9 °C 34818.2 hPa Calm     98 % 0 mm
07:42 -16.8 °C -17 °C 34818.2 hPa Calm     98 % 0 mm
07:52 -16.7 °C -16.9 °C 34818.2 hPa Calm     98 % 0 mm
07:57 -16.7 °C -16.9 °C 34831.8 hPa Calm     98 % 0 mm
08:02 -16.8 °C -17 °C 34818.2 hPa Calm     98 % 0 mm
08:12 -16.8 °C -17 °C 34818.2 hPa Calm     98 % 0 mm
08:17 -16.7 °C -16.9 °C 34831.8 hPa Calm     98 % 0 mm
08:32 -16.7 °C -16.8 °C 34831.8 hPa Calm     98 % 0 mm
08:37 -16.6 °C -16.7 °C 34831.8 hPa Calm   2.6 km/h 98 % 0 mm
08:42 -16.4 °C -16.6 °C 34831.8 hPa Calm   2.6 km/h 98 % 0 mm
08:47 -16.3 °C -16.4 °C 34841.9 hPa Calm     98 % 0 mm
08:52 -16.2 °C -16.3 °C 34841.9 hPa Calm     98 % 0 mm
08:57 -16 °C -16.2 °C 34841.9 hPa Calm     98 % 0 mm
09:02 -15.9 °C -16.1 °C 34841.9 hPa Calm     98 % 0 mm
09:07 -15.8 °C -15.9 °C 34841.9 hPa Calm     99 % 0 mm
09:17 -15.6 °C -15.7 °C 34841.9 hPa Calm     99 % 0 mm
09:22 -15.4 °C -15.4 °C 34852.1 hPa Calm     99 % 0 mm
09:27 -15.2 °C -15.3 °C 34852.1 hPa Calm   2.6 km/h 99 % 0 mm
09:32 -15.1 °C -15.1 °C 34841.9 hPa Calm   2.6 km/h 99 % 0 mm
09:37 -14.8 °C -14.9 °C 34841.9 hPa Calm   2.6 km/h 99 % 0 mm
09:42 -14.7 °C -14.8 °C 34841.9 hPa Calm   2.6 km/h 99 % 0 mm
09:47 -14.6 °C -14.6 °C 34841.9 hPa Calm   2.6 km/h 99 % 0 mm
09:52 -14.4 °C -14.4 °C 34841.9 hPa Calm   2.6 km/h 99 % 0 mm
09:57 -14.3 °C -14.3 °C 34841.9 hPa Calm   5.1 km/h 99 % 0 mm
10:02 -14.2 °C -14.3 °C 34852.1 hPa Calm   5.1 km/h 99 % 0 mm
10:07 -14.1 °C -14.2 °C 34841.9 hPa Calm   2.6 km/h 99 % 0 mm
10:12 -14.1 °C -14.1 °C 34841.9 hPa Calm   2.6 km/h 99 % 0 mm
10:17 -14 °C -14.1 °C 34852.1 hPa Calm   2.6 km/h 99 % 0 mm
10:22 -13.9 °C -14 °C 34852.1 hPa Calm   2.6 km/h 99 % 0 mm
10:27 -13.8 °C -13.8 °C 34852.1 hPa SW 2.6 km/h 2.6 km/h 99 % 0 mm
10:32 -13.6 °C -13.7 °C 34852.1 hPa WSW 2.6 km/h 2.6 km/h 99 % 0 mm
10:47 -13.4 °C -13.4 °C 34852.1 hPa Calm   5.1 km/h 99 % 0 mm
10:52 -13.3 °C -13.3 °C 34852.1 hPa Calm   5.1 km/h 99 % 0 mm
10:57 -13.2 °C -13.4 °C 34852.1 hPa Calm   5.1 km/h 98 % 0 mm
11:02 -13.2 °C -13.3 °C 34865.6 hPa Calm   5.1 km/h 98 % 0 mm
11:07 -13.1 °C -13.3 °C 34865.6 hPa Calm   5.1 km/h 97 % 0 mm
11:12 -13.1 °C -13.3 °C 34865.6 hPa Calm   5.1 km/h 97 % 0 mm
11:17 -13.1 °C -13.3 °C 34865.6 hPa Calm   10.3 km/h 97 % 0 mm
11:22 -13.1 °C -13.3 °C 34865.6 hPa Calm   10.3 km/h 97 % 0 mm
11:27 -13 °C -13.2 °C 34875.8 hPa Calm   5.1 km/h 97 % 0 mm
11:32 -13 °C -13.2 °C 34875.8 hPa WSW 2.6 km/h 5.1 km/h 97 % 0 mm
11:37 -12.9 °C -13.2 °C 34875.8 hPa SW 2.6 km/h 7.7 km/h 97 % 0 mm
11:42 -12.9 °C -13.2 °C 34875.8 hPa WSW 5.1 km/h 7.7 km/h 97 % 0 mm
11:47 -12.9 °C -13.2 °C 34875.8 hPa Calm   10.3 km/h 97 % 0 mm
11:57 -12.8 °C -13.2 °C 34865.6 hPa West 2.6 km/h 10.3 km/h 96 % 0 mm
12:02 -12.8 °C -13.1 °C 34865.6 hPa SW 2.6 km/h 10.3 km/h 96 % 0 mm
12:07 -12.7 °C -13.1 °C 34865.6 hPa Calm   10.3 km/h 96 % 0 mm
12:12 -12.7 °C -13.1 °C 34865.6 hPa Calm   10.3 km/h 96 % 0 mm
12:17 -12.7 °C -13 °C 34865.6 hPa Calm   10.3 km/h 96 % 0 mm
12:22 -12.6 °C -12.9 °C 34852.1 hPa SW 5.1 km/h 10.3 km/h 96 % 0 mm
12:27 -12.6 °C -12.9 °C 34852.1 hPa Calm   10.3 km/h 96 % 0 mm
12:37 -12.4 °C -12.9 °C 34852.1 hPa WSW 2.6 km/h 12.9 km/h 95 % 0 mm
12:42 -12.3 °C -12.7 °C 34841.9 hPa SSW 12.9 km/h 15.6 km/h 96 % 0 mm
12:47 -12.3 °C -12.6 °C 34841.9 hPa WSW 2.6 km/h 18.2 km/h 96 % 0 mm
12:52 -12.2 °C -12.6 °C 34831.8 hPa WSW 10.3 km/h 18.2 km/h 95 % 0 mm
12:57 -12.1 °C -12.6 °C 34831.8 hPa SW 2.6 km/h 18.2 km/h 95 % 0 mm
13:02 -12.1 °C -12.5 °C 34831.8 hPa SW 10.3 km/h 18.2 km/h 95 % 0 mm
13:07 -12.1 °C -12.5 °C 34831.8 hPa SW 5.1 km/h 15.6 km/h 95 % 0 mm
13:12 -12 °C -12.4 °C 34831.8 hPa SW 5.1 km/h 15.6 km/h 95 % 0 mm
13:17 -12 °C -12.5 °C 34818.2 hPa WSW 5.1 km/h 18.2 km/h 94 % 0 mm
13:22 -11.9 °C -12.4 °C 34808.1 hPa SW 10.3 km/h 18.2 km/h 94 % 0 mm
13:27 -11.9 °C -12.5 °C 34808.1 hPa SW 7.7 km/h 18.2 km/h 93 % 0 mm
13:32 -11.9 °C -12.5 °C 34808.1 hPa SW 5.1 km/h 18.2 km/h 93 % 0 mm
13:37 -11.8 °C -12.4 °C 34808.1 hPa SSW 12.9 km/h 20.8 km/h 93 % 0 mm
13:42 -11.8 °C -12.5 °C 34808.1 hPa South 7.7 km/h 20.8 km/h 92 % 0 mm
13:47 -11.8 °C -12.5 °C 34797.9 hPa WSW 5.1 km/h 20.8 km/h 92 % 0 mm
13:52 -11.8 °C -12.4 °C 34797.9 hPa WSW 15.6 km/h 20.8 km/h 93 % 0 mm
13:57 -11.7 °C -12.4 °C 34808.1 hPa SW 2.6 km/h 20.8 km/h 92 % 0 mm
14:02 -11.7 °C -12.4 °C 34818.2 hPa SW 10.3 km/h 20.8 km/h 92 % 0 mm
14:07 -11.7 °C -12.5 °C 34818.2 hPa Calm   15.6 km/h 91 % 0 mm
14:12 -11.8 °C -12.4 °C 34818.2 hPa Calm   15.6 km/h 92 % 0 mm
14:17 -11.8 °C -12.4 °C 34818.2 hPa WSW 2.6 km/h 12.9 km/h 92 % 0 mm
14:22 -11.7 °C -12.5 °C 34818.2 hPa SW 5.1 km/h 12.9 km/h 91 % 0 mm
14:27 -11.7 °C -12.4 °C 34818.2 hPa SW 7.7 km/h 15.6 km/h 91 % 0 mm
14:32 -11.6 °C -12.4 °C 34808.1 hPa WSW 7.7 km/h 15.6 km/h 91 % 0 mm
14:37 -11.6 °C -12.3 °C 34808.1 hPa SW 15.6 km/h 15.6 km/h 91 % 0 mm
14:42 -11.5 °C -12.4 °C 34797.9 hPa SW 5.1 km/h 15.6 km/h 90 % 0 mm
14:47 -11.5 °C -12.4 °C 34797.9 hPa SSW 5.1 km/h 20.8 km/h 90 % 0 mm
14:52 -11.4 °C -12.3 °C 34797.9 hPa SW 7.7 km/h 20.8 km/h 90 % 0 mm
14:57 -11.3 °C -12.2 °C 34797.9 hPa Calm   20.8 km/h 90 % 0 mm
15:02 -11.2 °C -12.2 °C 34797.9 hPa WSW 7.7 km/h 20.8 km/h 89 % 0 mm
15:17 -11.1 °C -12.3 °C 34784.4 hPa WSW 5.1 km/h 18.2 km/h 87 % 0 mm
15:27 -11.1 °C -12.2 °C 34784.4 hPa SSW 2.6 km/h 20.8 km/h 87 % 0 mm
15:32 -11.1 °C -12.2 °C 34797.9 hPa Calm   20.8 km/h 87 % 0 mm
15:37 -11 °C -12.2 °C 34797.9 hPa WSW 5.1 km/h 20.8 km/h 87 % 0 mm
15:42 -11.1 °C -12.2 °C 34797.9 hPa SW 10.3 km/h 20.8 km/h 87 % 0 mm
15:47 -11.1 °C -12.3 °C 34797.9 hPa SW 7.7 km/h 18.2 km/h 87 % 0 mm
15:52 -11.2 °C -12.2 °C 34797.9 hPa SW 7.7 km/h 18.2 km/h 88 % 0 mm
15:57 -11.2 °C -12.2 °C 34797.9 hPa SW 5.1 km/h 12.9 km/h 88 % 0 mm
16:02 -11.2 °C -12.2 °C 34797.9 hPa SW 5.1 km/h 12.9 km/h 88 % 0 mm
16:12 -11.2 °C -12.3 °C 34797.9 hPa WSW 5.1 km/h 10.3 km/h 88 % 0 mm
16:17 -11.2 °C -12.3 °C 34797.9 hPa SW 2.6 km/h 10.3 km/h 88 % 0 mm
16:22 -11.2 °C -12.3 °C 34797.9 hPa SW 5.1 km/h 10.3 km/h 88 % 0 mm
16:32 -11.2 °C -12.2 °C 34797.9 hPa WSW 2.6 km/h 12.9 km/h 88 % 0 mm
16:37 -11.2 °C -12.3 °C 34797.9 hPa Calm   10.3 km/h 88 % 0 mm
16:42 -11.3 °C -12.3 °C 34797.9 hPa Calm   10.3 km/h 89 % 0 mm
16:47 -11.3 °C -12.3 °C 34797.9 hPa Calm   5.1 km/h 89 % 0 mm
16:52 -11.4 °C -12.4 °C 34797.9 hPa Calm   5.1 km/h 89 % 0 mm
16:57 -11.5 °C -12.4 °C 34797.9 hPa Calm   10.3 km/h 89 % 0 mm
17:02 -11.6 °C -12.5 °C 34797.9 hPa Calm   10.3 km/h 89 % 0 mm
17:12 -11.8 °C -12.7 °C 34797.9 hPa Calm   10.3 km/h 90 % 0 mm
17:17 -11.8 °C -12.7 °C 34797.9 hPa Calm   7.7 km/h 90 % 0 mm
17:22 -11.9 °C -12.8 °C 34808.1 hPa WSW 2.6 km/h 7.7 km/h 90 % 0 mm
17:27 -11.9 °C -12.8 °C 34797.9 hPa Calm   12.9 km/h 90 % 0 mm
17:32 -12 °C -12.9 °C 34797.9 hPa Calm   12.9 km/h 90 % 0 mm
17:37 -12.1 °C -12.9 °C 34797.9 hPa Calm   10.3 km/h 90 % 0 mm
17:42 -12.1 °C -13 °C 34797.9 hPa SSE 10.3 km/h 10.3 km/h 90 % 0 mm
17:47 -12.2 °C -13.1 °C 34808.1 hPa SW 2.6 km/h 15.6 km/h 90 % 0 mm
17:52 -12.2 °C -13.1 °C 34808.1 hPa Calm   15.6 km/h 90 % 0 mm
17:57 -12.2 °C -13.1 °C 34808.1 hPa SW 2.6 km/h 15.6 km/h 90 % 0 mm
18:02 -12.3 °C -13.1 °C 34808.1 hPa SW 2.6 km/h 15.6 km/h 91 % 0 mm
18:07 -12.3 °C -13.1 °C 34808.1 hPa SW 2.6 km/h 12.9 km/h 91 % 0 mm
18:12 -12.3 °C -13.1 °C 34808.1 hPa Calm   12.9 km/h 91 % 0 mm
18:17 -12.4 °C -13.2 °C 34808.1 hPa WSW 2.6 km/h 12.9 km/h 91 % 0 mm
18:22 -12.4 °C -13.2 °C 34808.1 hPa West 5.1 km/h 10.3 km/h 91 % 0 mm
18:27 -12.4 °C -13.2 °C 34808.1 hPa WSW 2.6 km/h 10.3 km/h 91 % 0 mm
18:32 -12.4 °C -13.2 °C 34808.1 hPa Calm   12.9 km/h 91 % 0 mm
18:37 -12.4 °C -13.2 °C 34808.1 hPa SW 2.6 km/h 12.9 km/h 91 % 0 mm
18:42 -12.6 °C -13.3 °C 34808.1 hPa SW 7.7 km/h 12.9 km/h 91 % 0 mm
18:47 -12.6 °C -13.4 °C 34808.1 hPa Calm   10.3 km/h 91 % 0 mm
18:52 -12.6 °C -13.4 °C 34808.1 hPa WSW 7.7 km/h 10.3 km/h 91 % 0 mm
18:57 -12.7 °C -13.3 °C 34808.1 hPa WSW 7.7 km/h 18.2 km/h 92 % 0 mm
19:02 -12.7 °C -13.4 °C 34797.9 hPa Calm   18.2 km/h 92 % 0 mm
19:12 -12.8 °C -13.5 °C 34797.9 hPa WSW 7.7 km/h 18.2 km/h 92 % 0 mm
19:17 -12.8 °C -13.4 °C 34797.9 hPa SW 7.7 km/h 15.6 km/h 93 % 0 mm
19:27 -12.9 °C -13.5 °C 34797.9 hPa SW 7.7 km/h 20.8 km/h 93 % 0 mm
19:32 -12.9 °C -13.5 °C 34797.9 hPa WSW 10.3 km/h 20.8 km/h 93 % 0 mm
19:37 -12.9 °C -13.6 °C 34797.9 hPa WSW 2.6 km/h 20.8 km/h 93 % 0 mm
19:42 -12.9 °C -13.6 °C 34808.1 hPa SW 10.3 km/h 20.8 km/h 93 % 0 mm
19:47 -12.9 °C -13.6 °C 34808.1 hPa SW 2.6 km/h 20.8 km/h 93 % 0 mm
19:52 -12.9 °C -13.4 °C 34797.9 hPa SW 10.3 km/h 20.8 km/h 94 % 0 mm
19:57 -12.9 °C -13.4 °C 34797.9 hPa WSW 5.1 km/h 15.6 km/h 94 % 0 mm
20:02 -12.9 °C -13.4 °C 34797.9 hPa SW 10.3 km/h 15.6 km/h 94 % 0 mm
20:07 -13 °C -13.5 °C 34797.9 hPa SSW 10.3 km/h 15.6 km/h 94 % 0 mm
20:12 -13 °C -13.5 °C 34797.9 hPa SSW 7.7 km/h 15.6 km/h 94 % 0 mm
20:17 -13 °C -13.5 °C 34797.9 hPa West 7.7 km/h 15.6 km/h 94 % 0 mm
20:22 -13 °C -13.5 °C 34797.9 hPa West 18.2 km/h 18.2 km/h 94 % 0 mm
20:27 -13.1 °C -13.7 °C 34797.9 hPa SW 10.3 km/h 18.2 km/h 93 % 0 mm
20:32 -13.2 °C -13.7 °C 34797.9 hPa WSW 2.6 km/h 18.2 km/h 94 % 0 mm
20:37 -13.3 °C -13.8 °C 34797.9 hPa WSW 7.7 km/h 18.2 km/h 94 % 0 mm
20:42 -13.4 °C -13.8 °C 34797.9 hPa WSW 7.7 km/h 18.2 km/h 95 % 0 mm
20:47 -13.4 °C -13.8 °C 34784.4 hPa WSW 7.7 km/h 18.2 km/h 95 % 0 mm
20:52 -13.4 °C -13.8 °C 34784.4 hPa WSW 12.9 km/h 18.2 km/h 95 % 0 mm
20:57 -13.4 °C -13.8 °C 34797.9 hPa SW 7.7 km/h 20.8 km/h 95 % 0 mm
21:02 -13.4 °C -13.9 °C 34797.9 hPa SSW 2.6 km/h 20.8 km/h 95 % 0 mm
21:07 -13.6 °C -14.1 °C 34797.9 hPa SW 2.6 km/h 20.8 km/h 94 % 0 mm
21:12 -13.7 °C -14.1 °C 34797.9 hPa Calm   20.8 km/h 95 % 0 mm
21:17 -13.9 °C -14.3 °C 34797.9 hPa SW 2.6 km/h 7.7 km/h 95 % 0 mm
21:22 -14 °C -14.4 °C 34797.9 hPa SW 5.1 km/h 7.7 km/h 95 % 0 mm
21:27 -14.1 °C -14.4 °C 34797.9 hPa Calm   5.1 km/h 95 % 0 mm
21:37 -14.2 °C -14.6 °C 34797.9 hPa Calm   7.7 km/h 96 % 0 mm
21:42 -14.6 °C -15.1 °C 34797.9 hPa SE 2.6 km/h 7.7 km/h 94 % 0 mm
21:47 -14.6 °C -14.9 °C 34797.9 hPa Calm   7.7 km/h 96 % 0 mm
21:57 -14.6 °C -14.8 °C 34797.9 hPa Calm   5.1 km/h 97 % 0 mm
22:02 -14.5 °C -14.7 °C 34797.9 hPa Calm   5.1 km/h 97 % 0 mm
22:07 -14.4 °C -14.6 °C 34797.9 hPa Calm   7.7 km/h 97 % 0 mm
22:12 -14.5 °C -14.8 °C 34797.9 hPa Calm   7.7 km/h 96 % 0 mm
22:17 -14.1 °C -14.2 °C 34797.9 hPa SSW 5.1 km/h 7.7 km/h 98 % 0 mm
22:27 -13.7 °C -13.9 °C 34797.9 hPa SW 5.1 km/h 10.3 km/h 98 % 0 mm
22:32 -13.7 °C -13.8 °C 34797.9 hPa WSW 10.3 km/h 10.3 km/h 98 % 0 mm
22:37 -13.6 °C -13.8 °C 34797.9 hPa WSW 2.6 km/h 12.9 km/h 97 % 0 mm
22:42 -13.6 °C -13.8 °C 34797.9 hPa WSW 5.1 km/h 12.9 km/h 97 % 0 mm
22:47 -13.6 °C -13.9 °C 34797.9 hPa SW 2.6 km/h 12.9 km/h 96 % 0 mm
22:52 -13.5 °C -13.8 °C 34797.9 hPa WSW 2.6 km/h 12.9 km/h 96 % 0 mm
22:57 -13.5 °C -13.8 °C 34797.9 hPa Calm   10.3 km/h 96 % 0 mm
23:02 -13.5 °C -13.8 °C 34797.9 hPa WSW 2.6 km/h 10.3 km/h 96 % 0 mm
23:12 -13.6 °C -13.9 °C 34797.9 hPa SW 2.6 km/h 10.3 km/h 96 % 0 mm
23:17 -13.6 °C -13.9 °C 34797.9 hPa SW 2.6 km/h 10.3 km/h 96 % 0 mm
23:22 -13.6 °C -13.9 °C 34797.9 hPa Calm   10.3 km/h 96 % 0 mm
23:27 -13.6 °C -13.9 °C 34797.9 hPa WSW 5.1 km/h 10.3 km/h 96 % 0 mm
23:32 -13.6 °C -13.9 °C 34797.9 hPa SE 2.6 km/h 10.3 km/h 96 % 0 mm
23:37 -13.6 °C -13.9 °C 34797.9 hPa West 2.6 km/h 10.3 km/h 96 % 0 mm
23:42 -13.7 °C -14 °C 34797.9 hPa SW 5.1 km/h 10.3 km/h 96 % 0 mm
23:47 -13.7 °C -14.1 °C 34797.9 hPa WSW 5.1 km/h 10.3 km/h 96 % 0 mm
23:52 -13.7 °C -14.1 °C 34797.9 hPa WSW 7.7 km/h 10.3 km/h 96 % 0 mm
23:57 -13.7 °C -13.9 °C 34797.9 hPa SW 2.6 km/h 10.3 km/h 97 % 0 mm
Meteo18
Compliments of Weather Underground - 4 mb

Script developed by  Jim McMurry - jmcmurry@mwt.net Adapted for the template by  Wim van der Kuil - Leuven-Template.eu

You find our weather info also at:

European Weather Network

Weather Underground

Equipment we use:

Weather-station
Davis Vue

Weather-program
Meteobridge

Weather-server
Raspberry PI 2 B+

Provider
1 and 1

Davis Vue

Meteobridge

Raspberry PI 2 B+

1 and 1